createdAt,value
2018-07-20T00:01:40.820Z,14.90
2018-07-20T00:04:10.411Z,14.90
2018-07-20T00:06:39.611Z,14.90
2018-07-20T00:09:09.534Z,14.80
2018-07-20T00:11:38.990Z,14.80
2018-07-20T00:14:08.221Z,14.70
2018-07-20T00:16:37.391Z,14.80
2018-07-20T00:19:06.522Z,14.80
2018-07-20T00:21:35.891Z,14.70
2018-07-20T00:24:05.315Z,14.60
2018-07-20T00:26:34.489Z,14.60
2018-07-20T00:29:03.811Z,14.50
2018-07-20T00:31:33.004Z,14.50
2018-07-20T00:34:02.210Z,14.40
2018-07-20T00:36:31.501Z,14.40
2018-07-20T00:39:00.478Z,14.40
2018-07-20T00:41:29.613Z,14.60
2018-07-20T00:43:59.369Z,14.60
2018-07-20T00:46:28.595Z,14.70
2018-07-20T00:48:57.785Z,14.80
2018-07-20T00:51:27.062Z,14.80
2018-07-20T00:53:56.285Z,14.80
2018-07-20T00:56:25.466Z,14.80
2018-07-20T00:58:54.807Z,14.90
2018-07-20T01:01:24.190Z,15.00
2018-07-20T01:03:53.744Z,14.90
2018-07-20T01:06:22.995Z,14.80
2018-07-20T01:08:52.382Z,14.70
2018-07-20T01:11:21.482Z,14.60
2018-07-20T01:13:50.754Z,14.50
2018-07-20T01:16:19.861Z,14.40
2018-07-20T01:18:49.174Z,14.30
2018-07-20T01:21:18.756Z,14.30
2018-07-20T01:26:16.559Z,14.30
2018-07-20T01:28:45.725Z,14.20
2018-07-20T01:31:15.061Z,14.30
2018-07-20T01:33:44.125Z,14.30
2018-07-20T01:36:13.222Z,14.20
2018-07-20T01:38:42.354Z,14.20
2018-07-20T01:41:11.514Z,14.10
2018-07-20T01:43:41.919Z,14.00
2018-07-20T01:46:11.374Z,13.90
2018-07-20T01:48:40.533Z,13.90
2018-07-20T01:51:09.854Z,13.90
2018-07-20T01:53:39.026Z,13.80
2018-07-20T01:56:08.146Z,13.80
2018-07-20T01:58:37.231Z,13.70
2018-07-20T02:01:06.305Z,13.70
2018-07-20T02:03:35.425Z,13.70
2018-07-20T02:06:04.706Z,13.70
2018-07-20T02:08:34.026Z,13.60
2018-07-20T02:11:03.125Z,13.50
2018-07-20T02:13:32.292Z,13.70
2018-07-20T02:16:01.430Z,13.60
2018-07-20T02:18:30.673Z,13.60
2018-07-20T02:20:59.809Z,13.60
2018-07-20T02:23:28.994Z,13.50
2018-07-20T02:25:58.293Z,13.50
2018-07-20T02:28:27.398Z,13.50
2018-07-20T02:30:56.770Z,13.50
2018-07-20T02:33:25.882Z,13.40
2018-07-20T02:35:55.250Z,13.40
2018-07-20T02:38:24.485Z,13.30
2018-07-20T02:40:53.599Z,13.20
2018-07-20T02:43:22.889Z,13.20
2018-07-20T02:45:52.277Z,13.10
2018-07-20T02:48:21.449Z,13.10
2018-07-20T02:50:50.565Z,13.20
2018-07-20T02:53:19.734Z,13.20
2018-07-20T02:55:49.158Z,13.10
2018-07-20T02:58:18.337Z,13.20
2018-07-20T03:00:47.463Z,13.10
2018-07-20T03:03:16.521Z,13.10
2018-07-20T03:05:45.653Z,13.10
2018-07-20T03:08:14.939Z,13.10
2018-07-20T03:10:44.260Z,13.00
2018-07-20T03:13:13.441Z,12.90
2018-07-20T03:15:42.605Z,13.00
2018-07-20T03:18:11.829Z,13.00
2018-07-20T03:20:41.112Z,13.00
2018-07-20T03:23:10.429Z,12.90
2018-07-20T03:25:39.635Z,12.90
2018-07-20T03:28:08.798Z,12.90
2018-07-20T03:30:37.922Z,12.80
2018-07-20T03:33:07.094Z,12.80
2018-07-20T03:35:36.309Z,12.80
2018-07-20T03:40:33.986Z,12.70
2018-07-20T03:43:03.391Z,12.80
2018-07-20T03:45:32.765Z,12.70
2018-07-20T03:48:01.990Z,12.70
2018-07-20T03:50:31.167Z,12.70
2018-07-20T03:53:00.282Z,12.70
2018-07-20T03:55:29.626Z,12.70
2018-07-20T03:57:58.745Z,12.70
2018-07-20T04:00:27.974Z,12.80
2018-07-20T04:02:57.169Z,12.80
2018-07-20T04:05:26.237Z,12.80
2018-07-20T04:07:55.245Z,12.80
2018-07-20T04:10:24.441Z,12.80
2018-07-20T04:12:53.518Z,13.00
2018-07-20T04:15:22.951Z,13.10
2018-07-20T04:17:52.018Z,13.10
2018-07-20T04:20:21.131Z,13.10
2018-07-20T04:22:50.325Z,13.20
2018-07-20T04:25:19.678Z,13.20
2018-07-20T04:27:48.822Z,13.30
2018-07-20T04:30:18.126Z,13.30
2018-07-20T04:32:47.218Z,13.40
2018-07-20T04:35:16.409Z,13.50
2018-07-20T04:37:45.477Z,13.50
2018-07-20T04:40:14.716Z,13.60
2018-07-20T04:42:43.855Z,13.70
2018-07-20T04:45:13.094Z,13.80
2018-07-20T04:47:42.278Z,13.80
2018-07-20T04:50:11.489Z,14.00
2018-07-20T04:52:40.492Z,14.10
2018-07-20T04:55:09.778Z,14.40
2018-07-20T04:57:38.880Z,14.50
2018-07-20T05:00:08.149Z,14.70
2018-07-20T05:05:05.937Z,15.10
2018-07-20T05:07:35.153Z,15.30
2018-07-20T05:10:04.725Z,15.50
2018-07-20T05:12:33.845Z,15.70
2018-07-20T05:15:03.173Z,15.90
2018-07-20T05:17:32.445Z,16.00
2018-07-20T05:20:01.746Z,16.20
2018-07-20T05:22:30.911Z,16.30
2018-07-20T05:25:00.030Z,16.50
2018-07-20T05:27:29.369Z,16.70
2018-07-20T05:29:58.643Z,16.80
2018-07-20T05:32:27.804Z,17.00
2018-07-20T05:34:57.130Z,17.10
2018-07-20T05:37:26.314Z,17.20
2018-07-20T05:39:55.625Z,17.40
2018-07-20T05:42:25.021Z,17.50
2018-07-20T05:44:54.265Z,17.70
2018-07-20T05:47:23.450Z,17.90
2018-07-20T05:49:52.566Z,18.00
2018-07-20T05:52:21.725Z,18.10
2018-07-20T05:54:50.989Z,18.30
2018-07-20T05:57:20.097Z,18.40
2018-07-20T05:59:49.300Z,18.50
2018-07-20T06:02:18.686Z,18.70
2018-07-20T06:04:48.002Z,18.90
2018-07-20T06:07:17.165Z,19.00
2018-07-20T06:09:46.404Z,19.20
2018-07-20T06:12:15.697Z,19.40
2018-07-20T06:14:45.173Z,19.60
2018-07-20T06:17:14.407Z,19.80
2018-07-20T06:19:43.767Z,20.00
2018-07-20T06:22:12.986Z,20.10
2018-07-20T06:24:42.293Z,20.30
2018-07-20T06:27:11.562Z,20.50
2018-07-20T06:29:40.943Z,20.70
2018-07-20T06:32:10.185Z,20.80
2018-07-20T06:34:39.586Z,21.10
2018-07-20T06:37:08.677Z,21.20
2018-07-20T06:39:37.753Z,21.40
2018-07-20T06:42:06.957Z,21.40
2018-07-20T06:44:36.138Z,21.50
2018-07-20T06:49:33.924Z,21.70
2018-07-20T06:52:03.240Z,21.70
2018-07-20T06:54:32.382Z,21.80
2018-07-20T06:57:01.401Z,21.90
2018-07-20T06:59:30.522Z,22.20
2018-07-20T07:04:28.175Z,22.40
2018-07-20T07:06:57.506Z,22.60
2018-07-20T07:09:26.525Z,22.70
2018-07-20T07:11:55.757Z,22.90
2018-07-20T07:14:24.887Z,23.00
2018-07-20T07:16:53.847Z,23.10
2018-07-20T07:19:22.966Z,23.30
2018-07-20T07:21:52.162Z,23.40
2018-07-20T07:24:21.235Z,23.40
2018-07-20T07:26:50.449Z,23.40
2018-07-20T07:29:19.633Z,23.60
2018-07-20T07:31:48.849Z,23.60
2018-07-20T07:34:18.145Z,23.70
2018-07-20T07:36:47.254Z,23.80
2018-07-20T07:39:16.492Z,23.90
2018-07-20T07:41:45.604Z,24.10
2018-07-20T07:44:14.744Z,24.20
2018-07-20T07:46:43.915Z,24.20
2018-07-20T07:51:41.798Z,24.60
2018-07-20T07:54:11.002Z,24.70
2018-07-20T07:56:40.281Z,24.90
2018-07-20T07:59:09.501Z,25.10
2018-07-20T08:01:38.595Z,25.30
2018-07-20T08:04:07.769Z,25.50
2018-07-20T08:06:37.105Z,25.50
2018-07-20T08:09:10.002Z,25.40
2018-07-20T08:11:39.774Z,25.50
2018-07-20T08:14:09.362Z,25.70
2018-07-20T08:16:38.394Z,25.90
2018-07-20T08:19:07.569Z,26.20
2018-07-20T08:21:37.261Z,26.20
2018-07-20T08:24:06.842Z,26.40
2018-07-20T08:26:35.941Z,26.50
2018-07-20T08:29:05.282Z,26.60
2018-07-20T08:34:03.042Z,26.60
2018-07-20T08:36:32.254Z,26.50
2018-07-20T08:39:01.434Z,26.60
2018-07-20T08:41:30.757Z,26.70
2018-07-20T08:43:59.918Z,26.70
2018-07-20T08:46:29.192Z,26.90
2018-07-20T08:48:58.413Z,26.90
2018-07-20T08:51:27.538Z,27.10
2018-07-20T08:53:56.741Z,27.20
2018-07-20T08:56:25.804Z,27.30
2018-07-20T08:58:54.934Z,27.40
2018-07-20T09:01:24.345Z,27.20
2018-07-20T09:03:53.522Z,27.20
2018-07-20T09:06:22.690Z,27.60
2018-07-20T09:08:51.704Z,28.00
2018-07-20T09:11:20.810Z,28.10
2018-07-20T09:13:50.159Z,28.20
2018-07-20T09:16:19.405Z,28.30
2018-07-20T09:18:48.852Z,27.60
2018-07-20T09:21:18.114Z,27.60
2018-07-20T09:23:47.302Z,28.00
2018-07-20T09:26:16.397Z,28.20
2018-07-20T09:28:45.366Z,28.40
2018-07-20T09:31:14.491Z,28.70
2018-07-20T09:33:43.758Z,28.30
2018-07-20T09:36:12.761Z,28.40
2018-07-20T09:38:41.721Z,28.40
2018-07-20T09:41:10.966Z,28.60
2018-07-20T09:43:40.134Z,28.60
2018-07-20T09:46:09.450Z,28.50
2018-07-20T09:48:38.654Z,28.30
2018-07-20T09:51:07.821Z,28.00
2018-07-20T09:53:37.039Z,27.90
2018-07-20T09:56:06.532Z,28.30
2018-07-20T09:58:35.759Z,29.00
2018-07-20T10:01:05.114Z,29.30
2018-07-20T10:03:34.386Z,29.70
2018-07-20T10:06:03.646Z,30.00
2018-07-20T10:08:32.711Z,30.00
2018-07-20T10:11:01.828Z,30.00
2018-07-20T10:15:59.683Z,30.30
2018-07-20T10:18:28.909Z,30.50
2018-07-20T10:20:57.970Z,30.60
2018-07-20T10:23:27.077Z,30.80
2018-07-20T10:25:56.178Z,30.80
2018-07-20T10:30:53.970Z,31.20
2018-07-20T10:33:23.136Z,31.40
2018-07-20T10:35:52.367Z,31.70
2018-07-20T10:38:21.335Z,31.80
2018-07-20T10:40:50.559Z,31.70
2018-07-20T10:43:19.839Z,31.20
2018-07-20T10:45:49.121Z,31.40
2018-07-20T10:48:18.246Z,31.40
2018-07-20T10:50:47.213Z,31.70
2018-07-20T10:55:45.233Z,31.40
2018-07-20T10:58:14.439Z,31.40
2018-07-20T11:00:43.705Z,31.60
2018-07-20T11:03:12.670Z,31.80
2018-07-20T11:05:41.778Z,31.70
2018-07-20T11:08:10.976Z,32.00
2018-07-20T11:10:40.088Z,32.40
2018-07-20T11:13:09.079Z,32.70
2018-07-20T11:15:38.141Z,33.10
2018-07-20T11:18:07.266Z,33.30
2018-07-20T11:20:36.438Z,33.40
2018-07-20T11:23:05.454Z,33.90
2018-07-20T11:25:34.667Z,33.90
2018-07-20T11:28:03.899Z,34.20
2018-07-20T11:30:33.145Z,34.20
2018-07-20T11:33:02.422Z,33.50
2018-07-20T11:35:31.554Z,33.50
2018-07-20T11:38:00.923Z,33.20
2018-07-20T11:40:30.260Z,33.20
2018-07-20T11:42:59.513Z,33.50
2018-07-20T11:45:28.740Z,33.60
2018-07-20T11:47:57.700Z,33.40
2018-07-20T11:50:26.822Z,33.40
2018-07-20T11:52:55.893Z,33.50
2018-07-20T11:55:25.115Z,33.70
2018-07-20T11:57:54.390Z,33.50
2018-07-20T12:00:23.606Z,32.50
2018-07-20T12:02:52.810Z,32.20
2018-07-20T12:05:21.969Z,32.50
2018-07-20T12:07:51.354Z,33.00
2018-07-20T12:10:20.690Z,33.40
2018-07-20T12:12:49.997Z,33.60
2018-07-20T12:15:19.194Z,33.10
2018-07-20T12:17:48.361Z,33.30
2018-07-20T12:20:17.489Z,33.60
2018-07-20T12:22:46.600Z,33.30
2018-07-20T12:25:15.977Z,32.90
2018-07-20T12:27:45.171Z,33.40
2018-07-20T12:30:14.292Z,33.80
2018-07-20T12:32:43.538Z,34.10
2018-07-20T12:35:12.661Z,33.60
2018-07-20T12:37:41.733Z,33.30
2018-07-20T12:40:10.849Z,32.70
2018-07-20T12:42:39.987Z,32.20
2018-07-20T12:45:09.149Z,32.20
2018-07-20T12:47:38.549Z,32.60
2018-07-20T12:50:07.933Z,32.70
2018-07-20T12:52:37.137Z,33.30
2018-07-20T12:55:06.414Z,34.10
2018-07-20T12:57:35.742Z,34.10
2018-07-20T13:00:05.314Z,34.50
2018-07-20T13:02:34.537Z,34.80
2018-07-20T13:05:03.734Z,35.40
2018-07-20T13:07:33.103Z,35.90
2018-07-20T13:10:02.240Z,36.20
2018-07-20T13:12:31.405Z,35.90
2018-07-20T13:15:00.729Z,35.50
2018-07-20T13:17:30.102Z,35.50
2018-07-20T13:19:59.540Z,35.60
2018-07-20T13:22:28.718Z,35.00
2018-07-20T13:24:58.042Z,34.50
2018-07-20T13:27:27.249Z,34.40
2018-07-20T13:29:56.424Z,34.80
2018-07-20T13:32:25.616Z,34.40
2018-07-20T13:34:54.782Z,34.50
2018-07-20T13:37:23.906Z,34.30
2018-07-20T13:39:53.232Z,34.10
2018-07-20T13:42:22.420Z,33.80
2018-07-20T13:44:51.573Z,33.10
2018-07-20T13:47:20.893Z,32.60
2018-07-20T13:49:50.074Z,32.50
2018-07-20T13:52:19.301Z,32.40
2018-07-20T13:54:48.590Z,32.30
2018-07-20T13:57:17.867Z,31.90
2018-07-20T13:59:47.306Z,31.60
2018-07-20T14:02:16.566Z,31.30
2018-07-20T14:07:14.343Z,31.40
2018-07-20T14:12:12.317Z,31.70
2018-07-20T14:14:41.560Z,32.00
2018-07-20T14:17:10.863Z,32.00
2018-07-20T14:19:40.050Z,32.00
2018-07-20T14:22:09.521Z,32.00
2018-07-20T14:24:38.853Z,31.70
2018-07-20T14:27:08.553Z,31.40
2018-07-20T14:29:37.654Z,31.40
2018-07-20T14:32:06.912Z,31.30
2018-07-20T14:34:36.014Z,31.20
2018-07-20T14:37:05.541Z,31.30
2018-07-20T14:39:34.651Z,31.40
2018-07-20T14:42:03.846Z,31.10
2018-07-20T14:44:32.893Z,30.90
2018-07-20T14:47:02.129Z,30.70
2018-07-20T14:49:31.228Z,30.70
2018-07-20T14:52:00.425Z,30.50
2018-07-20T14:54:29.677Z,30.30
2018-07-20T14:56:59.026Z,30.20
2018-07-20T14:59:28.286Z,30.00
2018-07-20T15:01:57.602Z,30.00
2018-07-20T15:04:26.681Z,29.80
2018-07-20T15:06:55.812Z,29.80
2018-07-20T15:09:25.009Z,29.80
2018-07-20T15:11:54.300Z,29.90
2018-07-20T15:14:23.585Z,30.00
2018-07-20T15:16:52.784Z,30.40
2018-07-20T15:19:21.909Z,31.50
2018-07-20T15:21:51.053Z,32.60
2018-07-20T15:24:20.197Z,32.60
2018-07-20T15:26:49.282Z,32.70
2018-07-20T15:29:18.769Z,32.70
2018-07-20T15:31:47.971Z,32.80
2018-07-20T15:34:17.367Z,32.40
2018-07-20T15:36:46.666Z,32.10
2018-07-20T15:39:15.842Z,32.50
2018-07-20T15:41:45.261Z,32.70
2018-07-20T15:44:14.429Z,33.50
2018-07-20T15:46:43.721Z,33.70
2018-07-20T15:49:12.807Z,34.00
2018-07-20T15:53:35.343Z,34.20
2018-07-20T15:54:11.142Z,34.10
2018-07-20T15:56:40.438Z,34.10
2018-07-20T16:01:38.613Z,33.90
2018-07-20T16:04:08.034Z,33.80
2018-07-20T16:06:37.373Z,34.20
2018-07-20T16:09:09.426Z,34.40
2018-07-20T16:11:39.046Z,34.60
2018-07-20T16:14:08.398Z,34.50
2018-07-20T16:16:37.989Z,33.70
2018-07-20T16:19:07.502Z,33.50
2018-07-20T16:21:36.826Z,33.20
2018-07-20T16:24:06.097Z,33.50
2018-07-20T16:26:35.300Z,33.90
2018-07-20T16:29:04.370Z,34.20
2018-07-20T16:31:33.505Z,34.50
2018-07-20T16:34:02.670Z,34.90
2018-07-20T16:36:31.893Z,35.00
2018-07-20T16:39:01.174Z,35.00
2018-07-20T16:41:31.666Z,34.80
2018-07-20T16:44:00.890Z,34.40
2018-07-20T16:46:30.039Z,34.50
2018-07-20T16:48:59.197Z,34.70
2018-07-20T16:51:28.367Z,34.80
2018-07-20T16:53:57.523Z,34.50
2018-07-20T16:56:26.659Z,34.30
2018-07-20T16:58:57.260Z,34.60
2018-07-20T17:01:26.613Z,34.80
2018-07-20T17:03:55.889Z,34.40
2018-07-20T17:06:25.109Z,34.20
2018-07-20T17:08:54.196Z,33.90
2018-07-20T17:11:23.324Z,33.30
2018-07-20T17:13:52.677Z,32.90
2018-07-20T17:16:21.901Z,32.80
2018-07-20T17:18:51.401Z,32.40
2018-07-20T17:21:20.749Z,31.90
2018-07-20T17:23:50.210Z,31.70
2018-07-20T17:26:19.515Z,31.20
2018-07-20T17:28:48.847Z,30.80
2018-07-20T17:31:18.317Z,30.60
2018-07-20T17:33:47.613Z,30.10
2018-07-20T17:36:16.885Z,29.70
2018-07-20T17:38:46.117Z,29.30
2018-07-20T17:41:15.471Z,29.00
2018-07-20T17:43:44.790Z,28.80
2018-07-20T17:46:14.022Z,28.60
2018-07-20T17:48:43.189Z,28.50
2018-07-20T17:51:12.593Z,28.50
2018-07-20T17:53:41.786Z,28.50
2018-07-20T17:56:10.994Z,28.50
2018-07-20T17:58:40.541Z,28.40
2018-07-20T18:01:10.429Z,28.30
2018-07-20T18:03:39.623Z,28.20
2018-07-20T18:06:08.886Z,28.10
2018-07-20T18:08:38.095Z,27.80
2018-07-20T18:11:07.752Z,27.70
2018-07-20T18:13:37.103Z,27.70
2018-07-20T18:16:06.297Z,27.50
2018-07-20T18:18:35.574Z,27.40
2018-07-20T18:21:04.980Z,27.30
2018-07-20T18:23:34.453Z,27.20
2018-07-20T18:26:03.958Z,27.10
2018-07-20T18:28:33.388Z,26.90
2018-07-20T18:31:04.050Z,26.80
2018-07-20T18:33:33.461Z,26.70
2018-07-20T18:36:03.298Z,26.70
2018-07-20T18:38:32.821Z,26.60
2018-07-20T18:41:02.366Z,26.50
2018-07-20T18:43:31.714Z,26.30
2018-07-20T18:46:01.157Z,26.10
2018-07-20T18:48:30.569Z,26.10
2018-07-20T18:50:59.714Z,26.00
2018-07-20T18:53:29.132Z,25.90
2018-07-20T18:55:58.370Z,25.90
2018-07-20T18:58:27.447Z,25.80
2018-07-20T19:00:56.566Z,25.70
2018-07-20T19:03:25.658Z,25.60
2018-07-20T19:05:55.083Z,25.40
2018-07-20T19:08:24.213Z,25.30
2018-07-20T19:10:53.449Z,25.20
2018-07-20T19:13:22.735Z,25.20
2018-07-20T19:15:52.259Z,25.10
2018-07-20T19:18:21.647Z,25.00
2018-07-20T19:20:51.023Z,25.00
2018-07-20T19:23:20.407Z,24.90
2018-07-20T19:25:49.714Z,24.80
2018-07-20T19:28:18.955Z,24.70
2018-07-20T19:30:48.110Z,24.70
2018-07-20T19:35:46.004Z,24.60
2018-07-20T19:38:15.206Z,24.50
2018-07-20T19:40:44.510Z,24.50
2018-07-20T19:43:13.683Z,24.40
2018-07-20T19:45:42.930Z,24.40
2018-07-20T19:48:12.199Z,24.40
2018-07-20T19:53:10.702Z,24.20
2018-07-20T19:55:41.221Z,24.20
2018-07-20T19:58:11.266Z,24.00
2018-07-20T20:00:41.310Z,23.90
2018-07-20T20:03:10.867Z,23.80
2018-07-20T20:05:40.395Z,23.70
2018-07-20T20:08:10.860Z,23.60
2018-07-20T20:10:40.558Z,23.60
2018-07-20T20:13:10.409Z,23.60
2018-07-20T20:15:39.955Z,23.60
2018-07-20T20:18:09.613Z,23.60
2018-07-20T20:20:38.888Z,23.50
2018-07-20T20:23:08.233Z,23.50
2018-07-20T20:25:37.645Z,23.40
2018-07-20T20:28:06.943Z,23.40
2018-07-20T20:30:36.134Z,23.40
2018-07-20T20:33:05.342Z,23.30
2018-07-20T20:35:34.489Z,23.30
2018-07-20T20:38:03.685Z,23.20
2018-07-20T20:40:32.897Z,23.10
2018-07-20T20:43:01.974Z,23.10
2018-07-20T20:45:31.197Z,23.10
2018-07-20T20:48:00.432Z,23.10
2018-07-20T20:50:29.829Z,23.10
2018-07-20T20:52:59.305Z,23.10
2018-07-20T20:55:28.619Z,23.10
2018-07-20T20:57:57.867Z,22.80
2018-07-20T21:00:27.101Z,22.50
2018-07-20T21:02:56.283Z,22.20
2018-07-20T21:05:25.554Z,21.70
2018-07-20T21:07:54.674Z,21.20
2018-07-20T21:10:23.949Z,20.80
2018-07-20T21:12:52.965Z,20.30
2018-07-20T21:15:22.256Z,20.00
2018-07-20T21:17:51.665Z,19.70
2018-07-20T21:20:21.046Z,19.30
2018-07-20T21:22:50.385Z,18.80
2018-07-20T21:25:19.883Z,18.30
2018-07-20T21:27:49.142Z,17.90
2018-07-20T21:30:18.370Z,17.70
2018-07-20T21:32:47.900Z,17.50
2018-07-20T21:35:17.499Z,17.40
2018-07-20T21:37:46.646Z,17.40
2018-07-20T21:40:15.873Z,17.40
2018-07-20T21:42:45.142Z,17.40
2018-07-20T21:45:14.396Z,17.50
2018-07-20T21:47:43.632Z,17.50
2018-07-20T21:50:12.870Z,17.50
2018-07-20T21:52:42.070Z,17.50
2018-07-20T21:55:11.249Z,17.40
2018-07-20T21:57:40.461Z,17.30
2018-07-20T22:00:15.125Z,17.30
2018-07-20T22:02:44.493Z,17.40
2018-07-20T22:05:13.808Z,17.50
2018-07-20T22:07:43.081Z,17.50
2018-07-20T22:10:12.147Z,17.50
2018-07-20T22:12:41.364Z,17.50
2018-07-20T22:15:10.689Z,17.50
2018-07-20T22:17:39.870Z,17.50
2018-07-20T22:20:09.802Z,17.50
2018-07-20T22:22:39.068Z,17.50
2018-07-20T22:25:08.350Z,17.50
2018-07-20T22:27:37.972Z,17.50
2018-07-20T22:30:09.350Z,17.40
2018-07-20T22:32:38.515Z,17.50
2018-07-20T22:35:08.211Z,17.40
2018-07-20T22:37:37.656Z,17.40
2018-07-20T22:40:07.078Z,17.30
2018-07-20T22:42:36.390Z,17.30
2018-07-20T22:45:05.601Z,17.30
2018-07-20T22:47:34.825Z,17.20
2018-07-20T22:50:04.579Z,17.20
2018-07-20T22:52:34.217Z,17.10
2018-07-20T22:55:03.410Z,17.10
2018-07-20T22:57:32.663Z,17.10
2018-07-20T23:00:01.914Z,17.10
2018-07-20T23:02:31.148Z,17.00
2018-07-20T23:05:00.331Z,16.90
2018-07-20T23:07:29.602Z,16.90
2018-07-20T23:09:58.825Z,16.80
2018-07-20T23:12:28.098Z,16.80
2018-07-20T23:14:57.316Z,16.80
2018-07-20T23:17:26.369Z,16.80
2018-07-20T23:19:55.515Z,16.70
2018-07-20T23:22:24.807Z,16.70
2018-07-20T23:24:53.965Z,16.70
2018-07-20T23:27:23.102Z,16.70
2018-07-20T23:29:52.471Z,16.60
2018-07-20T23:32:21.594Z,16.60
2018-07-20T23:34:50.695Z,16.50
2018-07-20T23:37:19.853Z,16.50
2018-07-20T23:39:48.877Z,16.50
2018-07-20T23:42:18.249Z,16.40
2018-07-20T23:44:47.474Z,16.40
2018-07-20T23:47:16.853Z,16.40
2018-07-20T23:49:46.196Z,16.40
2018-07-20T23:52:15.582Z,16.40
2018-07-20T23:54:44.740Z,16.40
2018-07-20T23:57:14.066Z,16.40
2018-07-20T23:59:43.197Z,16.40
